sensor_id;sensor_type;location;lat;lon;timestamp;temperature;humidity
53802;DHT22;39709;53.334;6.534;2023-01-24T00:00:05;2.00;1.00
53802;DHT22;39709;53.334;6.534;2023-01-24T00:02:33;2.00;1.00
53802;DHT22;39709;53.334;6.534;2023-01-24T00:04:59;2.00;1.00
53802;DHT22;39709;53.334;6.534;2023-01-24T00:07:25;2.00;1.00
53802;DHT22;39709;53.334;6.534;2023-01-24T00:09:50;2.10;1.00
53802;DHT22;39709;53.334;6.534;2023-01-24T00:12:16;2.00;1.00
53802;DHT22;39709;53.334;6.534;2023-01-24T00:14:42;2.00;1.00
53802;DHT22;39709;53.334;6.534;2023-01-24T00:17:07;2.10;1.00
53802;DHT22;39709;53.334;6.534;2023-01-24T00:19:33;2.10;1.00
53802;DHT22;39709;53.334;6.534;2023-01-24T00:22:00;2.10;1.00
53802;DHT22;39709;53.334;6.534;2023-01-24T00:24:26;2.10;1.00
53802;DHT22;39709;53.334;6.534;2023-01-24T00:26:52;2.10;1.00
53802;DHT22;39709;53.334;6.534;2023-01-24T00:29:18;2.10;1.00
53802;DHT22;39709;53.334;6.534;2023-01-24T00:31:44;2.00;1.00
53802;DHT22;39709;53.334;6.534;2023-01-24T00:34:09;1.90;1.00
53802;DHT22;39709;53.334;6.534;2023-01-24T00:36:35;2.10;1.00
53802;DHT22;39709;53.334;6.534;2023-01-24T00:39:01;2.00;1.00
53802;DHT22;39709;53.334;6.534;2023-01-24T00:41:26;2.00;1.00
53802;DHT22;39709;53.334;6.534;2023-01-24T00:43:52;2.00;1.00
53802;DHT22;39709;53.334;6.534;2023-01-24T00:46:18;2.00;1.00
53802;DHT22;39709;53.334;6.534;2023-01-24T00:48:43;2.00;1.00
53802;DHT22;39709;53.334;6.534;2023-01-24T00:51:09;2.00;1.00
53802;DHT22;39709;53.334;6.534;2023-01-24T00:53:35;2.10;1.00
53802;DHT22;39709;53.334;6.534;2023-01-24T00:56:00;2.00;1.00
53802;DHT22;39709;53.334;6.534;2023-01-24T00:58:26;2.10;1.00
53802;DHT22;39709;53.334;6.534;2023-01-24T01:00:56;2.10;1.00
53802;DHT22;39709;53.334;6.534;2023-01-24T01:03:22;2.00;1.00
53802;DHT22;39709;53.334;6.534;2023-01-24T01:05:48;1.90;1.00
53802;DHT22;39709;53.334;6.534;2023-01-24T01:08:13;2.00;1.00
53802;DHT22;39709;53.334;6.534;2023-01-24T01:10:40;1.90;1.00
53802;DHT22;39709;53.334;6.534;2023-01-24T01:13:06;2.00;1.00
53802;DHT22;39709;53.334;6.534;2023-01-24T01:15:32;1.90;1.00
53802;DHT22;39709;53.334;6.534;2023-01-24T01:17:58;2.20;1.00
53802;DHT22;39709;53.334;6.534;2023-01-24T01:20:24;2.00;1.00
53802;DHT22;39709;53.334;6.534;2023-01-24T01:22:50;2.00;1.00
53802;DHT22;39709;53.334;6.534;2023-01-24T01:25:16;1.90;1.00
53802;DHT22;39709;53.334;6.534;2023-01-24T01:27:42;1.90;1.00
53802;DHT22;39709;53.334;6.534;2023-01-24T01:30:08;1.90;1.00
53802;DHT22;39709;53.334;6.534;2023-01-24T01:32:33;1.90;1.00
53802;DHT22;39709;53.334;6.534;2023-01-24T01:34:59;1.90;1.00
53802;DHT22;39709;53.334;6.534;2023-01-24T01:37:25;2.10;1.00
53802;DHT22;39709;53.334;6.534;2023-01-24T01:39:50;2.00;1.40
53802;DHT22;39709;53.334;6.534;2023-01-24T01:42:16;2.20;1.10
53802;DHT22;39709;53.334;6.534;2023-01-24T01:44:42;1.90;1.00
53802;DHT22;39709;53.334;6.534;2023-01-24T01:52:24;1.90;7.00
53802;DHT22;39709;53.334;6.534;2023-01-24T01:54:52;1.90;8.40
53802;DHT22;39709;53.334;6.534;2023-01-24T01:57:24;2.00;7.60
53802;DHT22;39709;53.334;6.534;2023-01-24T02:00:02;2.20;8.90
53802;DHT22;39709;53.334;6.534;2023-01-24T02:02:28;2.00;6.70
53802;DHT22;39709;53.334;6.534;2023-01-24T02:05:00;2.10;9.40
53802;DHT22;39709;53.334;6.534;2023-01-24T02:07:34;2.20;8.30
53802;DHT22;39709;53.334;6.534;2023-01-24T02:10:02;1.90;6.40
53802;DHT22;39709;53.334;6.534;2023-01-24T02:12:32;2.10;6.30
53802;DHT22;39709;53.334;6.534;2023-01-24T02:15:08;2.10;1.00
53802;DHT22;39709;53.334;6.534;2023-01-24T02:17:52;2.10;1.00
53802;DHT22;39709;53.334;6.534;2023-01-24T02:20:44;2.10;1.00
53802;DHT22;39709;53.334;6.534;2023-01-24T02:26:09;1.90;1.00
53802;DHT22;39709;53.334;6.534;2023-01-24T02:28:35;2.00;1.00
53802;DHT22;39709;53.334;6.534;2023-01-24T02:31:02;1.90;1.00
53802;DHT22;39709;53.334;6.534;2023-01-24T02:33:28;2.00;1.00
53802;DHT22;39709;53.334;6.534;2023-01-24T02:38:45;1.90;2.20
53802;DHT22;39709;53.334;6.534;2023-01-24T02:41:13;1.90;2.20
53802;DHT22;39709;53.334;6.534;2023-01-24T02:43:43;2.00;1.00
53802;DHT22;39709;53.334;6.534;2023-01-24T02:46:10;1.90;1.00
53802;DHT22;39709;53.334;6.534;2023-01-24T02:48:35;2.00;5.00
53802;DHT22;39709;53.334;6.534;2023-01-24T02:51:01;2.10;8.50
53802;DHT22;39709;53.334;6.534;2023-01-24T02:53:45;2.00;13.10
53802;DHT22;39709;53.334;6.534;2023-01-24T02:56:11;2.00;17.10
53802;DHT22;39709;53.334;6.534;2023-01-24T02:58:55;2.00;19.90
53802;DHT22;39709;53.334;6.534;2023-01-24T03:01:22;2.00;17.10
53802;DHT22;39709;53.334;6.534;2023-01-24T03:03:49;2.00;17.80
53802;DHT22;39709;53.334;6.534;2023-01-24T03:06:16;2.00;17.70
53802;DHT22;39709;53.334;6.534;2023-01-24T03:08:43;2.10;7.40
53802;DHT22;39709;53.334;6.534;2023-01-24T03:11:09;2.10;1.00
53802;DHT22;39709;53.334;6.534;2023-01-24T03:13:36;2.10;1.00
53802;DHT22;39709;53.334;6.534;2023-01-24T03:16:21;2.10;6.10
53802;DHT22;39709;53.334;6.534;2023-01-24T03:19:05;2.10;1.00
53802;DHT22;39709;53.334;6.534;2023-01-24T03:21:50;2.20;1.00
53802;DHT22;39709;53.334;6.534;2023-01-24T03:24:34;2.10;1.00
53802;DHT22;39709;53.334;6.534;2023-01-24T03:27:18;2.10;1.00
53802;DHT22;39709;53.334;6.534;2023-01-24T03:30:05;2.10;1.00
53802;DHT22;39709;53.334;6.534;2023-01-24T03:32:50;2.10;1.00
53802;DHT22;39709;53.334;6.534;2023-01-24T03:35:34;2.10;1.00
53802;DHT22;39709;53.334;6.534;2023-01-24T03:38:00;2.20;1.00
53802;DHT22;39709;53.334;6.534;2023-01-24T03:40:45;2.10;1.00
53802;DHT22;39709;53.334;6.534;2023-01-24T03:43:11;2.20;1.00
53802;DHT22;39709;53.334;6.534;2023-01-24T03:45:38;2.10;1.00
53802;DHT22;39709;53.334;6.534;2023-01-24T03:48:08;2.10;1.00
53802;DHT22;39709;53.334;6.534;2023-01-24T03:50:41;2.00;1.00
53802;DHT22;39709;53.334;6.534;2023-01-24T03:53:28;2.10;1.00
53802;DHT22;39709;53.334;6.534;2023-01-24T03:55:56;2.30;1.00
53802;DHT22;39709;53.334;6.534;2023-01-24T03:58:23;2.20;1.00
53802;DHT22;39709;53.334;6.534;2023-01-24T04:00:49;2.10;1.00
53802;DHT22;39709;53.334;6.534;2023-01-24T04:03:15;2.10;1.00
53802;DHT22;39709;53.334;6.534;2023-01-24T04:05:41;2.10;1.00
53802;DHT22;39709;53.334;6.534;2023-01-24T04:08:06;2.20;1.00
53802;DHT22;39709;53.334;6.534;2023-01-24T04:10:33;2.10;9.70
53802;DHT22;39709;53.334;6.534;2023-01-24T04:12:59;1.90;23.60
53802;DHT22;39709;53.334;6.534;2023-01-24T04:15:27;2.00;24.50
53802;DHT22;39709;53.334;6.534;2023-01-24T04:17:58;2.10;14.00
53802;DHT22;39709;53.334;6.534;2023-01-24T04:20:26;2.10;6.60
53802;DHT22;39709;53.334;6.534;2023-01-24T04:22:52;2.00;1.00
53802;DHT22;39709;53.334;6.534;2023-01-24T04:25:18;2.10;1.00
53802;DHT22;39709;53.334;6.534;2023-01-24T04:27:44;2.00;1.00
53802;DHT22;39709;53.334;6.534;2023-01-24T04:30:11;2.30;1.00
53802;DHT22;39709;53.334;6.534;2023-01-24T04:32:37;2.10;1.00
53802;DHT22;39709;53.334;6.534;2023-01-24T04:35:03;2.30;1.00
53802;DHT22;39709;53.334;6.534;2023-01-24T04:37:30;2.20;5.40
53802;DHT22;39709;53.334;6.534;2023-01-24T04:39:57;2.30;2.40
53802;DHT22;39709;53.334;6.534;2023-01-24T04:42:22;2.10;1.00
53802;DHT22;39709;53.334;6.534;2023-01-24T04:44:48;2.20;1.00
53802;DHT22;39709;53.334;6.534;2023-01-24T04:47:14;2.10;1.00
53802;DHT22;39709;53.334;6.534;2023-01-24T04:49:39;2.40;1.00
53802;DHT22;39709;53.334;6.534;2023-01-24T04:52:12;2.20;1.00
53802;DHT22;39709;53.334;6.534;2023-01-24T04:54:39;2.10;1.00
53802;DHT22;39709;53.334;6.534;2023-01-24T04:57:05;2.10;1.00
53802;DHT22;39709;53.334;6.534;2023-01-24T04:59:31;2.50;12.10
53802;DHT22;39709;53.334;6.534;2023-01-24T05:01:56;2.50;1.00
53802;DHT22;39709;53.334;6.534;2023-01-24T05:04:22;2.40;1.00
53802;DHT22;39709;53.334;6.534;2023-01-24T05:06:47;2.20;1.00
53802;DHT22;39709;53.334;6.534;2023-01-24T05:09:13;2.40;1.00
53802;DHT22;39709;53.334;6.534;2023-01-24T05:11:39;2.30;1.00
53802;DHT22;39709;53.334;6.534;2023-01-24T05:14:04;2.30;1.00
53802;DHT22;39709;53.334;6.534;2023-01-24T05:16:30;2.30;1.00
53802;DHT22;39709;53.334;6.534;2023-01-24T05:18:56;2.60;1.00
53802;DHT22;39709;53.334;6.534;2023-01-24T05:21:22;2.40;1.00
53802;DHT22;39709;53.334;6.534;2023-01-24T05:23:49;2.30;1.00
53802;DHT22;39709;53.334;6.534;2023-01-24T05:26:16;2.50;1.00
53802;DHT22;39709;53.334;6.534;2023-01-24T05:28:42;2.30;1.00
53802;DHT22;39709;53.334;6.534;2023-01-24T05:31:07;2.30;1.00
53802;DHT22;39709;53.334;6.534;2023-01-24T05:33:34;2.40;1.00
53802;DHT22;39709;53.334;6.534;2023-01-24T05:36:08;2.40;1.00
53802;DHT22;39709;53.334;6.534;2023-01-24T05:38:34;2.50;1.00
53802;DHT22;39709;53.334;6.534;2023-01-24T05:41:04;2.90;3.70
53802;DHT22;39709;53.334;6.534;2023-01-24T05:43:31;2.90;25.40
53802;DHT22;39709;53.334;6.534;2023-01-24T05:46:02;3.00;56.40
53802;DHT22;39709;53.334;6.534;2023-01-24T05:48:28;2.90;81.40
53802;DHT22;39709;53.334;6.534;2023-01-24T05:51:03;2.80;84.80
53802;DHT22;39709;53.334;6.534;2023-01-24T05:53:30;3.00;97.70
53802;DHT22;39709;53.334;6.534;2023-01-24T05:56:04;2.70;73.90
53802;DHT22;39709;53.334;6.534;2023-01-24T05:58:34;2.40;1.00
53802;DHT22;39709;53.334;6.534;2023-01-24T06:01:00;2.30;1.00
53802;DHT22;39709;53.334;6.534;2023-01-24T06:03:26;2.30;1.00
53802;DHT22;39709;53.334;6.534;2023-01-24T06:05:52;2.30;1.00
53802;DHT22;39709;53.334;6.534;2023-01-24T06:08:19;2.20;1.00
53802;DHT22;39709;53.334;6.534;2023-01-24T06:10:45;2.50;1.00
53802;DHT22;39709;53.334;6.534;2023-01-24T06:13:12;2.50;1.00
53802;DHT22;39709;53.334;6.534;2023-01-24T06:15:38;2.30;1.00
53802;DHT22;39709;53.334;6.534;2023-01-24T06:18:04;2.20;1.00
53802;DHT22;39709;53.334;6.534;2023-01-24T06:20:30;2.20;1.00
53802;DHT22;39709;53.334;6.534;2023-01-24T06:25:27;2.40;1.00
53802;DHT22;39709;53.334;6.534;2023-01-24T06:27:53;2.40;1.00
53802;DHT22;39709;53.334;6.534;2023-01-24T06:30:19;2.20;1.00
53802;DHT22;39709;53.334;6.534;2023-01-24T06:33:10;2.20;1.00
53802;DHT22;39709;53.334;6.534;2023-01-24T06:38:36;2.10;1.00
53802;DHT22;39709;53.334;6.534;2023-01-24T06:41:02;2.10;1.00
53802;DHT22;39709;53.334;6.534;2023-01-24T06:43:28;2.10;1.00
53802;DHT22;39709;53.334;6.534;2023-01-24T06:45:55;2.10;1.00
53802;DHT22;39709;53.334;6.534;2023-01-24T06:48:20;2.10;1.00
53802;DHT22;39709;53.334;6.534;2023-01-24T06:50:47;2.30;1.00
53802;DHT22;39709;53.334;6.534;2023-01-24T06:53:12;2.30;1.00
53802;DHT22;39709;53.334;6.534;2023-01-24T06:55:43;2.50;1.00
53802;DHT22;39709;53.334;6.534;2023-01-24T06:58:09;2.20;1.00
53802;DHT22;39709;53.334;6.534;2023-01-24T07:00:35;2.10;1.00
53802;DHT22;39709;53.334;6.534;2023-01-24T07:03:05;2.20;1.00
53802;DHT22;39709;53.334;6.534;2023-01-24T07:05:32;2.10;1.00
53802;DHT22;39709;53.334;6.534;2023-01-24T07:07:58;2.40;1.00
53802;DHT22;39709;53.334;6.534;2023-01-24T07:10:25;2.80;26.70
53802;DHT22;39709;53.334;6.534;2023-01-24T07:12:50;2.80;72.70
53802;DHT22;39709;53.334;6.534;2023-01-24T07:15:16;2.50;1.00
53802;DHT22;39709;53.334;6.534;2023-01-24T07:17:43;2.30;1.00
53802;DHT22;39709;53.334;6.534;2023-01-24T07:20:10;2.10;1.00
53802;DHT22;39709;53.334;6.534;2023-01-24T07:22:39;2.10;1.00
53802;DHT22;39709;53.334;6.534;2023-01-24T07:25:16;2.10;1.00
53802;DHT22;39709;53.334;6.534;2023-01-24T07:27:44;2.10;1.00
53802;DHT22;39709;53.334;6.534;2023-01-24T07:30:11;2.10;1.00
53802;DHT22;39709;53.334;6.534;2023-01-24T07:32:37;2.20;1.00
53802;DHT22;39709;53.334;6.534;2023-01-24T07:35:05;2.20;1.00
53802;DHT22;39709;53.334;6.534;2023-01-24T07:37:31;2.60;37.30
53802;DHT22;39709;53.334;6.534;2023-01-24T07:39:57;2.40;1.00
53802;DHT22;39709;53.334;6.534;2023-01-24T07:42:22;2.70;11.70
53802;DHT22;39709;53.334;6.534;2023-01-24T07:44:48;2.40;1.00
53802;DHT22;39709;53.334;6.534;2023-01-24T07:47:14;2.50;51.50
53802;DHT22;39709;53.334;6.534;2023-01-24T07:49:40;2.70;91.60
53802;DHT22;39709;53.334;6.534;2023-01-24T07:52:06;2.80;99.90
53802;DHT22;39709;53.334;6.534;2023-01-24T07:54:32;2.30;1.00
53802;DHT22;39709;53.334;6.534;2023-01-24T07:56:59;2.20;1.00
53802;DHT22;39709;53.334;6.534;2023-01-24T07:59:25;2.20;1.00
53802;DHT22;39709;53.334;6.534;2023-01-24T08:01:50;2.10;1.00
53802;DHT22;39709;53.334;6.534;2023-01-24T08:04:16;2.10;1.00
53802;DHT22;39709;53.334;6.534;2023-01-24T08:06:42;2.20;1.00
53802;DHT22;39709;53.334;6.534;2023-01-24T08:09:26;2.00;1.00
53802;DHT22;39709;53.334;6.534;2023-01-24T08:11:52;2.00;1.00
53802;DHT22;39709;53.334;6.534;2023-01-24T08:14:18;2.00;1.00
53802;DHT22;39709;53.334;6.534;2023-01-24T08:16:44;2.10;1.00
53802;DHT22;39709;53.334;6.534;2023-01-24T08:19:09;2.00;1.00
53802;DHT22;39709;53.334;6.534;2023-01-24T08:21:36;2.00;1.00
53802;DHT22;39709;53.334;6.534;2023-01-24T08:24:02;2.10;1.00
53802;DHT22;39709;53.334;6.534;2023-01-24T08:26:27;2.00;1.00
53802;DHT22;39709;53.334;6.534;2023-01-24T08:28:53;2.10;1.00
53802;DHT22;39709;53.334;6.534;2023-01-24T08:31:19;2.10;1.00
53802;DHT22;39709;53.334;6.534;2023-01-24T08:33:44;2.60;44.40
53802;DHT22;39709;53.334;6.534;2023-01-24T08:36:10;2.40;17.40
53802;DHT22;39709;53.334;6.534;2023-01-24T08:38:36;2.30;1.00
53802;DHT22;39709;53.334;6.534;2023-01-24T08:41:05;2.40;11.60
53802;DHT22;39709;53.334;6.534;2023-01-24T08:43:31;2.60;32.90
53802;DHT22;39709;53.334;6.534;2023-01-24T08:45:57;2.70;99.90
53802;DHT22;39709;53.334;6.534;2023-01-24T08:48:22;2.60;93.50
53802;DHT22;39709;53.334;6.534;2023-01-24T08:50:48;2.90;99.90
53802;DHT22;39709;53.334;6.534;2023-01-24T08:53:14;2.70;99.90
53802;DHT22;39709;53.334;6.534;2023-01-24T08:55:40;2.60;97.00
53802;DHT22;39709;53.334;6.534;2023-01-24T08:58:06;2.40;18.40
53802;DHT22;39709;53.334;6.534;2023-01-24T09:00:32;2.80;99.90
53802;DHT22;39709;53.334;6.534;2023-01-24T09:02:58;2.60;99.90
53802;DHT22;39709;53.334;6.534;2023-01-24T09:05:29;2.90;99.90
53802;DHT22;39709;53.334;6.534;2023-01-24T09:07:56;2.60;83.40
53802;DHT22;39709;53.334;6.534;2023-01-24T09:10:21;2.90;99.90
53802;DHT22;39709;53.334;6.534;2023-01-24T09:12:47;3.20;99.90
53802;DHT22;39709;53.334;6.534;2023-01-24T09:15:12;3.10;99.90
53802;DHT22;39709;53.334;6.534;2023-01-24T09:17:38;2.80;99.90
53802;DHT22;39709;53.334;6.534;2023-01-24T09:20:06;2.80;72.40
53802;DHT22;39709;53.334;6.534;2023-01-24T09:22:32;2.50;50.10
53802;DHT22;39709;53.334;6.534;2023-01-24T09:24:58;2.90;99.90
53802;DHT22;39709;53.334;6.534;2023-01-24T09:27:24;2.70;99.90
53802;DHT22;39709;53.334;6.534;2023-01-24T09:29:50;2.80;99.90
53802;DHT22;39709;53.334;6.534;2023-01-24T09:32:15;2.90;99.90
53802;DHT22;39709;53.334;6.534;2023-01-24T09:34:42;2.80;99.90
53802;DHT22;39709;53.334;6.534;2023-01-24T09:37:15;2.90;99.90
53802;DHT22;39709;53.334;6.534;2023-01-24T09:39:41;2.80;99.90
53802;DHT22;39709;53.334;6.534;2023-01-24T09:42:39;2.70;99.90
53802;DHT22;39709;53.334;6.534;2023-01-24T09:47:41;2.60;82.70
53802;DHT22;39709;53.334;6.534;2023-01-24T09:50:15;2.90;99.90
53802;DHT22;39709;53.334;6.534;2023-01-24T09:52:44;2.90;99.90
53802;DHT22;39709;53.334;6.534;2023-01-24T09:55:21;2.90;99.90
53802;DHT22;39709;53.334;6.534;2023-01-24T09:58:02;2.70;99.90
53802;DHT22;39709;53.334;6.534;2023-01-24T10:00:36;2.60;53.70
53802;DHT22;39709;53.334;6.534;2023-01-24T10:03:02;2.80;99.90
53802;DHT22;39709;53.334;6.534;2023-01-24T10:05:35;3.20;99.90
53802;DHT22;39709;53.334;6.534;2023-01-24T10:24:10;3.20;99.90
53802;DHT22;39709;53.334;6.534;2023-01-24T10:26:49;3.00;90.80
53802;DHT22;39709;53.334;6.534;2023-01-24T10:29:19;2.80;56.00
53802;DHT22;39709;53.334;6.534;2023-01-24T10:32:00;2.60;1.00
53802;DHT22;39709;53.334;6.534;2023-01-24T10:34:42;2.80;62.30
53802;DHT22;39709;53.334;6.534;2023-01-24T10:39:37;3.20;99.90
53802;DHT22;39709;53.334;6.534;2023-01-24T10:42:27;3.50;99.90
53802;DHT22;39709;53.334;6.534;2023-01-24T10:45:01;3.20;99.90
53802;DHT22;39709;53.334;6.534;2023-01-24T10:50:10;3.40;99.90
53802;DHT22;39709;53.334;6.534;2023-01-24T10:52:36;3.70;99.90
53802;DHT22;39709;53.334;6.534;2023-01-24T10:55:04;3.50;99.90
53802;DHT22;39709;53.334;6.534;2023-01-24T10:57:53;3.20;99.90
53802;DHT22;39709;53.334;6.534;2023-01-24T11:00:36;3.30;99.90
53802;DHT22;39709;53.334;6.534;2023-01-24T11:03:22;3.40;99.90
53802;DHT22;39709;53.334;6.534;2023-01-24T11:05:50;3.20;99.90
53802;DHT22;39709;53.334;6.534;2023-01-24T11:08:34;2.50;1.00
53802;DHT22;39709;53.334;6.534;2023-01-24T11:11:01;2.50;1.00
53802;DHT22;39709;53.334;6.534;2023-01-24T11:13:35;2.50;1.00
53802;DHT22;39709;53.334;6.534;2023-01-24T11:19:00;2.70;1.00
53802;DHT22;39709;53.334;6.534;2023-01-24T11:21:28;2.50;1.00
53802;DHT22;39709;53.334;6.534;2023-01-24T11:24:23;2.80;1.00
53802;DHT22;39709;53.334;6.534;2023-01-24T11:29:19;3.00;1.00
53802;DHT22;39709;53.334;6.534;2023-01-24T11:31:48;3.20;99.90
53802;DHT22;39709;53.334;6.534;2023-01-24T11:34:37;3.00;99.90
53802;DHT22;39709;53.334;6.534;2023-01-24T11:43:43;3.70;99.90
53802;DHT22;39709;53.334;6.534;2023-01-24T11:55:07;3.70;99.90
53802;DHT22;39709;53.334;6.534;2023-01-24T12:05:48;3.50;99.90
53802;DHT22;39709;53.334;6.534;2023-01-24T12:08:22;2.70;1.00
53802;DHT22;39709;53.334;6.534;2023-01-24T12:11:31;2.60;1.00
53802;DHT22;39709;53.334;6.534;2023-01-24T12:19:59;3.10;58.90
53802;DHT22;39709;53.334;6.534;2023-01-24T12:22:28;3.00;3.40
53802;DHT22;39709;53.334;6.534;2023-01-24T12:25:00;3.40;99.90
53802;DHT22;39709;53.334;6.534;2023-01-24T12:27:30;3.60;99.90
53802;DHT22;39709;53.334;6.534;2023-01-24T12:29:58;3.00;1.00
53802;DHT22;39709;53.334;6.534;2023-01-24T12:32:49;2.80;1.00
53802;DHT22;39709;53.334;6.534;2023-01-24T12:35:32;3.00;34.00
53802;DHT22;39709;53.334;6.534;2023-01-24T12:41:11;3.90;99.90
53802;DHT22;39709;53.334;6.534;2023-01-24T12:49:27;2.90;1.00
53802;DHT22;39709;53.334;6.534;2023-01-24T12:52:03;3.40;71.30
53802;DHT22;39709;53.334;6.534;2023-01-24T12:54:50;3.20;85.70
53802;DHT22;39709;53.334;6.534;2023-01-24T13:00:03;2.80;1.00
53802;DHT22;39709;53.334;6.534;2023-01-24T13:05:51;2.90;1.00
53802;DHT22;39709;53.334;6.534;2023-01-24T13:11:21;3.20;29.90
53802;DHT22;39709;53.334;6.534;2023-01-24T13:32:59;3.20;1.00
53802;DHT22;39709;53.334;6.534;2023-01-24T13:35:28;3.70;99.90
53802;DHT22;39709;53.334;6.534;2023-01-24T13:38:05;3.80;99.90
53802;DHT22;39709;53.334;6.534;2023-01-24T13:40:32;3.30;45.90
53802;DHT22;39709;53.334;6.534;2023-01-24T13:43:54;3.30;90.20
53802;DHT22;39709;53.334;6.534;2023-01-24T13:45:50;3.50;99.90
53802;DHT22;39709;53.334;6.534;2023-01-24T13:54:05;3.90;99.90
53802;DHT22;39709;53.334;6.534;2023-01-24T13:56:32;3.50;99.90
53802;DHT22;39709;53.334;6.534;2023-01-24T13:59:17;3.70;99.90
53802;DHT22;39709;53.334;6.534;2023-01-24T14:01:45;3.90;99.90
53802;DHT22;39709;53.334;6.534;2023-01-24T14:04:11;3.90;99.90
53802;DHT22;39709;53.334;6.534;2023-01-24T14:06:42;3.80;99.90
53802;DHT22;39709;53.334;6.534;2023-01-24T14:09:20;3.60;99.90
53802;DHT22;39709;53.334;6.534;2023-01-24T14:11:57;3.90;99.90
53802;DHT22;39709;53.334;6.534;2023-01-24T14:14:34;3.60;99.90
53802;DHT22;39709;53.334;6.534;2023-01-24T14:17:03;3.30;99.90
53802;DHT22;39709;53.334;6.534;2023-01-24T14:19:32;3.60;99.90
53802;DHT22;39709;53.334;6.534;2023-01-24T14:22:16;3.60;99.90
53802;DHT22;39709;53.334;6.534;2023-01-24T14:24:53;3.50;99.90
53802;DHT22;39709;53.334;6.534;2023-01-24T14:27:24;2.90;91.10
53802;DHT22;39709;53.334;6.534;2023-01-24T14:33:13;2.60;1.00
53802;DHT22;39709;53.334;6.534;2023-01-24T14:36:00;2.80;1.00
53802;DHT22;39709;53.334;6.534;2023-01-24T14:38:26;2.50;1.00
53802;DHT22;39709;53.334;6.534;2023-01-24T14:40:52;2.40;1.00
53802;DHT22;39709;53.334;6.534;2023-01-24T14:43:20;2.40;1.00
53802;DHT22;39709;53.334;6.534;2023-01-24T14:45:46;3.10;97.30
53802;DHT22;39709;53.334;6.534;2023-01-24T14:48:20;3.30;99.90
53802;DHT22;39709;53.334;6.534;2023-01-24T14:50:57;3.50;99.90
53802;DHT22;39709;53.334;6.534;2023-01-24T14:53:28;2.60;1.00
53802;DHT22;39709;53.334;6.534;2023-01-24T14:55:59;2.70;1.00
53802;DHT22;39709;53.334;6.534;2023-01-24T14:58:28;3.50;99.90
53802;DHT22;39709;53.334;6.534;2023-01-24T15:00:59;2.70;1.00
53802;DHT22;39709;53.334;6.534;2023-01-24T15:03:33;2.60;1.00
53802;DHT22;39709;53.334;6.534;2023-01-24T15:06:07;2.40;1.00
53802;DHT22;39709;53.334;6.534;2023-01-24T15:08:33;2.30;1.00
53802;DHT22;39709;53.334;6.534;2023-01-24T15:11:05;2.30;1.00
53802;DHT22;39709;53.334;6.534;2023-01-24T15:13:49;2.20;1.00
53802;DHT22;39709;53.334;6.534;2023-01-24T15:16:18;2.30;1.00
53802;DHT22;39709;53.334;6.534;2023-01-24T15:23:49;2.20;1.00
53802;DHT22;39709;53.334;6.534;2023-01-24T15:26:30;2.10;1.00
53802;DHT22;39709;53.334;6.534;2023-01-24T15:28:57;2.10;1.00
53802;DHT22;39709;53.334;6.534;2023-01-24T15:31:28;2.20;1.00
53802;DHT22;39709;53.334;6.534;2023-01-24T15:33:59;2.50;1.00
53802;DHT22;39709;53.334;6.534;2023-01-24T15:36:32;2.20;1.00
53802;DHT22;39709;53.334;6.534;2023-01-24T15:38:59;2.20;1.00
53802;DHT22;39709;53.334;6.534;2023-01-24T15:41:30;2.20;1.00
53802;DHT22;39709;53.334;6.534;2023-01-24T15:44:18;2.30;1.00
53802;DHT22;39709;53.334;6.534;2023-01-24T15:46:53;2.20;1.00
53802;DHT22;39709;53.334;6.534;2023-01-24T15:49:56;2.10;1.00
53802;DHT22;39709;53.334;6.534;2023-01-24T15:52:22;2.10;1.00
53802;DHT22;39709;53.334;6.534;2023-01-24T15:54:58;2.10;1.00
53802;DHT22;39709;53.334;6.534;2023-01-24T15:57:29;2.00;1.00
53802;DHT22;39709;53.334;6.534;2023-01-24T16:02:33;2.10;1.00
53802;DHT22;39709;53.334;6.534;2023-01-24T16:05:00;1.90;1.00
53802;DHT22;39709;53.334;6.534;2023-01-24T16:07:26;1.90;1.00
53802;DHT22;39709;53.334;6.534;2023-01-24T16:09:51;2.00;1.00
53802;DHT22;39709;53.334;6.534;2023-01-24T16:12:21;2.50;13.70
53802;DHT22;39709;53.334;6.534;2023-01-24T16:14:51;2.10;1.00
53802;DHT22;39709;53.334;6.534;2023-01-24T16:17:19;1.90;1.00
53802;DHT22;39709;53.334;6.534;2023-01-24T16:19:45;1.90;1.00
53802;DHT22;39709;53.334;6.534;2023-01-24T16:22:11;2.00;1.00
53802;DHT22;39709;53.334;6.534;2023-01-24T16:24:36;2.40;16.30
53802;DHT22;39709;53.334;6.534;2023-01-24T16:27:04;2.20;1.00
53802;DHT22;39709;53.334;6.534;2023-01-24T16:29:31;2.00;1.00
53802;DHT22;39709;53.334;6.534;2023-01-24T16:31:58;2.20;1.00
53802;DHT22;39709;53.334;6.534;2023-01-24T16:34:24;2.60;48.10
53802;DHT22;39709;53.334;6.534;2023-01-24T16:36:50;2.60;99.30
53802;DHT22;39709;53.334;6.534;2023-01-24T16:39:18;2.40;5.40
53802;DHT22;39709;53.334;6.534;2023-01-24T16:41:45;2.00;1.00
53802;DHT22;39709;53.334;6.534;2023-01-24T16:44:12;2.00;1.00
53802;DHT22;39709;53.334;6.534;2023-01-24T16:46:38;1.70;1.00
53802;DHT22;39709;53.334;6.534;2023-01-24T16:49:04;1.80;1.00
53802;DHT22;39709;53.334;6.534;2023-01-24T16:51:30;1.70;1.00
53802;DHT22;39709;53.334;6.534;2023-01-24T16:53:56;1.70;1.00
53802;DHT22;39709;53.334;6.534;2023-01-24T16:56:22;1.70;1.00
53802;DHT22;39709;53.334;6.534;2023-01-24T16:58:48;1.70;1.00
53802;DHT22;39709;53.334;6.534;2023-01-24T17:01:13;1.70;1.00
53802;DHT22;39709;53.334;6.534;2023-01-24T17:03:40;1.60;1.00
53802;DHT22;39709;53.334;6.534;2023-01-24T17:06:07;1.60;1.00
53802;DHT22;39709;53.334;6.534;2023-01-24T17:08:33;1.60;1.00
53802;DHT22;39709;53.334;6.534;2023-01-24T17:11:07;1.60;1.00
53802;DHT22;39709;53.334;6.534;2023-01-24T17:13:33;1.50;1.00
53802;DHT22;39709;53.334;6.534;2023-01-24T17:16:10;1.50;1.00
53802;DHT22;39709;53.334;6.534;2023-01-24T17:18:36;1.50;1.00
53802;DHT22;39709;53.334;6.534;2023-01-24T17:21:04;1.50;1.00
53802;DHT22;39709;53.334;6.534;2023-01-24T17:23:31;1.50;1.00
53802;DHT22;39709;53.334;6.534;2023-01-24T17:26:09;1.40;1.00
53802;DHT22;39709;53.334;6.534;2023-01-24T17:28:36;1.40;1.00
53802;DHT22;39709;53.334;6.534;2023-01-24T17:31:13;1.40;1.00
53802;DHT22;39709;53.334;6.534;2023-01-24T17:33:40;1.40;1.00
53802;DHT22;39709;53.334;6.534;2023-01-24T17:36:07;1.40;1.00
53802;DHT22;39709;53.334;6.534;2023-01-24T17:38:33;1.30;1.00
53802;DHT22;39709;53.334;6.534;2023-01-24T17:40:59;1.40;1.00
53802;DHT22;39709;53.334;6.534;2023-01-24T17:43:25;1.30;1.00
53802;DHT22;39709;53.334;6.534;2023-01-24T17:45:55;1.20;1.00
53802;DHT22;39709;53.334;6.534;2023-01-24T17:48:21;1.20;1.00
53802;DHT22;39709;53.334;6.534;2023-01-24T17:50:47;1.30;1.00
53802;DHT22;39709;53.334;6.534;2023-01-24T17:53:16;1.30;1.00
53802;DHT22;39709;53.334;6.534;2023-01-24T17:55:43;1.30;1.00
53802;DHT22;39709;53.334;6.534;2023-01-24T17:58:10;1.30;1.00
53802;DHT22;39709;53.334;6.534;2023-01-24T18:00:36;1.40;1.00
53802;DHT22;39709;53.334;6.534;2023-01-24T18:03:01;1.30;1.00
53802;DHT22;39709;53.334;6.534;2023-01-24T18:05:27;1.50;1.00
53802;DHT22;39709;53.334;6.534;2023-01-24T18:07:53;1.30;1.00
53802;DHT22;39709;53.334;6.534;2023-01-24T18:10:18;1.30;1.00
53802;DHT22;39709;53.334;6.534;2023-01-24T18:12:44;1.30;1.00
53802;DHT22;39709;53.334;6.534;2023-01-24T18:15:10;1.30;1.00
53802;DHT22;39709;53.334;6.534;2023-01-24T18:17:36;1.30;1.00
53802;DHT22;39709;53.334;6.534;2023-01-24T18:20:03;1.20;1.00